createdAt,value
2022-10-10T00:00:35.742Z,10.94
2022-10-10T00:03:25.455Z,11.00
2022-10-10T00:06:14.605Z,10.86
2022-10-10T00:09:02.950Z,10.87
2022-10-10T00:11:50.891Z,10.64
2022-10-10T00:14:38.801Z,10.54
2022-10-10T00:17:26.738Z,10.46
2022-10-10T00:20:18.560Z,10.35
2022-10-10T00:23:06.486Z,10.24
2022-10-10T00:25:54.508Z,10.10
2022-10-10T00:28:42.564Z,10.01
2022-10-10T00:31:30.821Z,9.87
2022-10-10T00:34:18.901Z,9.80
2022-10-10T00:37:08.213Z,9.74
2022-10-10T00:39:56.210Z,9.63
2022-10-10T00:42:44.162Z,9.62
2022-10-10T00:45:38.671Z,9.57
2022-10-10T00:48:31.176Z,9.22
2022-10-10T00:51:20.452Z,9.54
2022-10-10T00:54:13.112Z,9.23
2022-10-10T00:57:05.439Z,9.36
2022-10-10T00:59:54.277Z,9.32
2022-10-10T01:02:42.305Z,9.35
2022-10-10T01:05:30.724Z,9.30
2022-10-10T01:08:19.960Z,9.34
2022-10-10T01:11:25.112Z,9.34
2022-10-10T01:14:24.971Z,9.26
2022-10-10T01:17:21.491Z,9.25
2022-10-10T01:20:42.070Z,9.25
2022-10-10T01:24:03.577Z,9.25
2022-10-10T01:27:09.274Z,9.21
2022-10-10T01:30:02.836Z,9.22
2022-10-10T01:32:54.340Z,9.20
2022-10-10T01:35:51.589Z,9.12
2022-10-10T01:38:44.165Z,9.07
2022-10-10T01:41:36.885Z,9.14
2022-10-10T01:44:24.867Z,9.19
2022-10-10T01:47:14.666Z,9.19
2022-10-10T01:50:05.593Z,9.20
2022-10-10T01:53:03.426Z,9.11
2022-10-10T01:55:57.288Z,9.11
2022-10-10T01:59:04.327Z,9.05
2022-10-10T02:01:56.157Z,9.04
2022-10-10T02:04:50.437Z,9.07
2022-10-10T02:07:42.997Z,9.10
2022-10-10T02:10:34.593Z,9.21
2022-10-10T02:13:24.150Z,9.19
2022-10-10T02:16:17.023Z,9.09
2022-10-10T02:19:09.312Z,9.06
2022-10-10T02:21:59.562Z,9.08
2022-10-10T02:24:47.465Z,9.04
2022-10-10T02:27:40.648Z,9.06
2022-10-10T02:30:29.295Z,9.05
2022-10-10T02:33:21.102Z,9.02
2022-10-10T02:36:10.201Z,9.05
2022-10-10T02:39:00.824Z,9.01
2022-10-10T02:41:51.787Z,9.10
2022-10-10T02:44:40.681Z,9.15
2022-10-10T02:47:28.589Z,9.25
2022-10-10T02:50:16.482Z,9.24
2022-10-10T02:53:04.346Z,9.28
2022-10-10T02:55:53.579Z,9.27
2022-10-10T02:58:41.446Z,9.35
2022-10-10T03:01:29.327Z,9.38
2022-10-10T03:04:17.325Z,9.32
2022-10-10T03:07:05.733Z,9.30
2022-10-10T03:09:53.694Z,9.24
2022-10-10T03:12:42.973Z,9.15
2022-10-10T03:15:30.844Z,9.16
2022-10-10T03:18:18.997Z,8.74
2022-10-10T03:21:07.044Z,9.08
2022-10-10T03:23:54.916Z,9.05
2022-10-10T03:26:42.771Z,8.99
2022-10-10T03:29:32.072Z,9.05
2022-10-10T03:32:19.966Z,9.06
2022-10-10T03:35:08.388Z,9.07
2022-10-10T03:37:57.150Z,9.08
2022-10-10T03:40:46.034Z,9.12
2022-10-10T03:43:33.922Z,9.12
2022-10-10T03:46:23.169Z,9.08
2022-10-10T03:49:11.681Z,8.97
2022-10-10T03:52:00.483Z,9.03
2022-10-10T03:54:48.353Z,9.08
2022-10-10T03:57:36.251Z,9.04
2022-10-10T04:00:24.121Z,9.05
2022-10-10T04:03:13.287Z,9.04
2022-10-10T04:06:01.265Z,8.90
2022-10-10T04:08:49.164Z,9.08
2022-10-10T04:11:38.537Z,9.13
2022-10-10T04:14:26.739Z,9.36
2022-10-10T04:17:14.980Z,9.38
2022-10-10T04:20:04.667Z,9.30
2022-10-10T04:22:52.933Z,9.41
2022-10-10T04:25:41.764Z,9.37
2022-10-10T04:28:30.756Z,9.32
2022-10-10T04:31:18.678Z,9.29
2022-10-10T04:34:06.645Z,9.28
2022-10-10T04:36:55.913Z,9.22
2022-10-10T04:39:43.773Z,9.19
2022-10-10T04:42:31.971Z,9.08
2022-10-10T04:45:19.913Z,9.00
2022-10-10T04:48:07.764Z,8.90
2022-10-10T04:50:57.373Z,8.78
2022-10-10T04:53:50.308Z,8.71
2022-10-10T04:56:38.611Z,8.73
2022-10-10T04:59:26.714Z,8.68
2022-10-10T05:02:14.802Z,8.69
2022-10-10T05:05:03.176Z,8.77
2022-10-10T05:07:55.273Z,8.77
2022-10-10T05:10:47.140Z,8.84
2022-10-10T05:13:35.018Z,8.86
2022-10-10T05:16:23.077Z,8.84
2022-10-10T05:19:10.995Z,8.87
2022-10-10T05:21:58.908Z,8.93
2022-10-10T05:24:46.745Z,8.86
2022-10-10T05:27:35.997Z,8.84
2022-10-10T05:30:23.899Z,8.81
2022-10-10T05:33:12.196Z,8.85
2022-10-10T05:36:05.007Z,8.83
2022-10-10T05:38:53.040Z,8.94
2022-10-10T05:41:40.924Z,8.93
2022-10-10T05:44:31.849Z,8.95
2022-10-10T05:47:23.097Z,8.90
2022-10-10T05:50:27.149Z,8.80
2022-10-10T05:53:15.195Z,8.84
2022-10-10T05:56:03.086Z,8.83
2022-10-10T05:58:51.314Z,8.83
2022-10-10T06:01:40.593Z,8.86
2022-10-10T06:04:08.494Z,8.79
2022-10-10T06:06:36.385Z,8.85
2022-10-10T06:09:04.853Z,8.84
2022-10-10T06:11:32.566Z,8.91
2022-10-10T06:14:00.255Z,9.06
2022-10-10T06:16:28.664Z,9.14
2022-10-10T06:18:58.017Z,9.33
2022-10-10T06:21:26.545Z,9.52
2022-10-10T06:23:54.207Z,9.63
2022-10-10T06:26:21.871Z,9.75
2022-10-10T06:28:50.730Z,9.89
2022-10-10T06:31:18.426Z,9.94
2022-10-10T06:33:47.981Z,10.08
2022-10-10T06:36:18.064Z,10.16
2022-10-10T06:38:46.715Z,10.32
2022-10-10T06:41:14.605Z,10.12
2022-10-10T06:43:42.448Z,10.19
2022-10-10T06:46:11.626Z,10.57
2022-10-10T06:48:39.273Z,10.71
2022-10-10T06:51:09.349Z,10.77
2022-10-10T06:53:38.354Z,10.97
2022-10-10T06:56:06.386Z,11.16
2022-10-10T06:58:35.007Z,11.37
2022-10-10T07:01:05.151Z,11.42
2022-10-10T07:03:32.773Z,11.32
2022-10-10T07:06:01.961Z,11.31
2022-10-10T07:08:32.782Z,11.04
2022-10-10T07:11:02.063Z,11.17
2022-10-10T07:13:29.711Z,11.27
2022-10-10T07:15:57.676Z,11.43
2022-10-10T07:18:25.281Z,11.42
2022-10-10T07:20:57.206Z,11.62
2022-10-10T07:23:25.282Z,11.54
2022-10-10T07:25:53.491Z,11.62
2022-10-10T07:28:22.483Z,11.67
2022-10-10T07:30:50.240Z,11.72
2022-10-10T07:33:17.839Z,11.67
2022-10-10T07:35:53.933Z,11.54
2022-10-10T07:38:21.628Z,11.64
2022-10-10T07:40:49.308Z,11.69
2022-10-10T07:43:16.905Z,11.74
2022-10-10T07:45:45.922Z,11.63
2022-10-10T07:48:13.512Z,11.60
2022-10-10T07:50:42.404Z,11.71
2022-10-10T07:53:10.170Z,11.72
2022-10-10T07:55:39.769Z,11.87
2022-10-10T07:58:08.068Z,12.04
2022-10-10T08:00:36.474Z,12.22
2022-10-10T08:03:09.647Z,12.71
2022-10-10T08:05:41.090Z,13.15
2022-10-10T08:08:09.039Z,13.32
2022-10-10T08:10:36.772Z,13.48
2022-10-10T08:13:04.964Z,13.52
2022-10-10T08:15:34.035Z,13.66
2022-10-10T08:18:01.922Z,13.76
2022-10-10T08:20:30.917Z,13.74
2022-10-10T08:22:58.893Z,13.83
2022-10-10T08:25:26.565Z,13.77
2022-10-10T08:27:54.174Z,13.96
2022-10-10T08:30:21.897Z,14.02
2022-10-10T08:32:49.891Z,14.03
2022-10-10T08:35:17.891Z,13.94
2022-10-10T08:37:46.912Z,14.00
2022-10-10T08:40:17.257Z,14.05
2022-10-10T08:42:52.828Z,14.10
2022-10-10T08:45:25.177Z,14.24
2022-10-10T08:47:56.475Z,14.39
2022-10-10T08:50:28.476Z,14.54
2022-10-10T08:53:01.002Z,14.54
2022-10-10T08:55:33.538Z,14.72
2022-10-10T08:58:07.779Z,15.00
2022-10-10T09:00:40.757Z,15.07
2022-10-10T09:03:19.516Z,15.17
2022-10-10T09:06:01.013Z,15.10
2022-10-10T09:08:44.113Z,15.36
2022-10-10T09:11:23.158Z,15.28
2022-10-10T09:14:04.840Z,15.41
2022-10-10T09:16:41.120Z,15.52
2022-10-10T09:19:24.523Z,15.63
2022-10-10T09:21:54.256Z,15.51
2022-10-10T09:24:27.481Z,15.87
2022-10-10T09:27:01.212Z,16.05
2022-10-10T09:29:35.140Z,16.16
2022-10-10T09:32:10.068Z,16.38
2022-10-10T09:34:42.485Z,16.30
2022-10-10T09:37:24.232Z,16.44
2022-10-10T09:40:13.068Z,16.69
2022-10-10T09:42:40.998Z,16.90
2022-10-10T09:45:16.952Z,17.05
2022-10-10T09:47:44.616Z,17.21
2022-10-10T09:50:14.486Z,17.28
2022-10-10T09:52:43.272Z,17.48
2022-10-10T09:55:24.532Z,17.78
2022-10-10T09:57:54.194Z,17.75
2022-10-10T10:00:35.894Z,17.80
2022-10-10T10:03:15.881Z,18.03
2022-10-10T10:05:47.158Z,18.01
2022-10-10T10:08:25.758Z,18.06
2022-10-10T10:10:58.182Z,18.23
2022-10-10T10:13:29.614Z,18.22
2022-10-10T10:16:09.979Z,18.23
2022-10-10T10:18:43.219Z,18.32
2022-10-10T10:21:23.602Z,18.55
2022-10-10T10:23:54.900Z,18.43
2022-10-10T10:26:27.283Z,18.64
2022-10-10T10:28:57.591Z,18.92
2022-10-10T10:31:52.266Z,18.89
2022-10-10T10:34:39.367Z,18.99
2022-10-10T10:37:17.691Z,19.13
2022-10-10T10:40:10.129Z,18.94
2022-10-10T10:42:54.366Z,19.09
2022-10-10T10:45:26.179Z,19.11
2022-10-10T10:48:02.394Z,19.18
2022-10-10T10:50:44.656Z,19.17
2022-10-10T10:53:20.910Z,19.20
2022-10-10T10:55:53.634Z,19.09
2022-10-10T10:59:10.386Z,19.29
2022-10-10T11:01:51.885Z,19.35
2022-10-10T11:05:22.207Z,19.04
2022-10-10T11:07:24.379Z,19.15
2022-10-10T11:09:57.639Z,19.28
2022-10-10T11:12:39.112Z,19.56
2022-10-10T11:15:15.521Z,19.58
2022-10-10T11:17:48.796Z,19.49
2022-10-10T11:20:25.099Z,19.40
2022-10-10T11:22:57.467Z,19.63
2022-10-10T11:25:30.581Z,19.87
2022-10-10T11:28:04.596Z,19.68
2022-10-10T11:30:36.972Z,19.78
2022-10-10T11:33:12.181Z,19.95
2022-10-10T11:35:45.376Z,19.96
2022-10-10T11:38:21.479Z,20.12
2022-10-10T11:40:54.848Z,20.33
2022-10-10T11:43:30.881Z,20.19
2022-10-10T11:46:06.393Z,20.33
2022-10-10T11:48:42.878Z,20.42
2022-10-10T11:51:21.973Z,20.41
2022-10-10T11:53:52.882Z,20.59
2022-10-10T11:56:30.483Z,20.81
2022-10-10T11:59:05.381Z,20.57
2022-10-10T12:01:38.900Z,20.72
2022-10-10T12:04:06.537Z,21.03
2022-10-10T12:06:39.527Z,21.01
2022-10-10T12:09:13.285Z,20.85
2022-10-10T12:11:46.202Z,20.83
2022-10-10T12:14:17.976Z,20.98
2022-10-10T12:16:47.691Z,20.92
2022-10-10T12:19:19.402Z,21.17
2022-10-10T12:21:56.132Z,21.27
2022-10-10T12:24:24.695Z,21.35
2022-10-10T12:27:29.196Z,21.35
2022-10-10T12:30:27.360Z,21.24
2022-10-10T12:32:56.781Z,21.24
2022-10-10T12:35:34.558Z,21.40
2022-10-10T12:38:11.411Z,21.23
2022-10-10T12:41:08.013Z,21.07
2022-10-10T12:43:51.077Z,20.94
2022-10-10T12:46:23.404Z,20.88
2022-10-10T12:49:16.623Z,20.88
2022-10-10T12:51:45.712Z,21.18
2022-10-10T12:54:25.387Z,21.35
2022-10-10T12:57:00.738Z,21.30
2022-10-10T12:59:28.624Z,21.55
2022-10-10T13:01:59.256Z,21.76
2022-10-10T13:04:29.147Z,21.41
2022-10-10T13:06:59.067Z,21.14
2022-10-10T13:09:32.475Z,21.10
2022-10-10T13:12:05.093Z,21.03
2022-10-10T13:14:40.429Z,21.24
2022-10-10T13:17:22.529Z,21.30
2022-10-10T13:19:52.014Z,21.32
2022-10-10T13:22:21.042Z,21.20
2022-10-10T13:24:50.077Z,21.24
2022-10-10T13:27:21.367Z,21.45
2022-10-10T13:29:49.483Z,21.86
2022-10-10T13:32:21.005Z,22.13
2022-10-10T13:34:54.117Z,22.16
2022-10-10T13:37:22.443Z,22.03
2022-10-10T13:39:51.910Z,21.88
2022-10-10T13:42:29.526Z,22.10
2022-10-10T13:45:00.064Z,22.02
2022-10-10T13:47:53.345Z,22.26
2022-10-10T13:50:26.474Z,22.15
2022-10-10T13:53:32.225Z,22.28
2022-10-10T13:56:05.333Z,22.29
2022-10-10T13:58:39.488Z,22.40
2022-10-10T14:01:07.523Z,22.20
2022-10-10T14:03:35.314Z,22.20
2022-10-10T14:06:04.521Z,22.29
2022-10-10T14:08:34.501Z,22.25
2022-10-10T14:11:06.232Z,21.92
2022-10-10T14:13:37.998Z,21.76
2022-10-10T14:16:13.740Z,21.88
2022-10-10T14:18:41.349Z,21.82
2022-10-10T14:21:10.797Z,21.81
2022-10-10T14:23:39.024Z,21.75
2022-10-10T14:26:08.808Z,21.99
2022-10-10T14:28:39.696Z,22.00
2022-10-10T14:31:08.039Z,22.05
2022-10-10T14:33:35.894Z,21.83
2022-10-10T14:36:04.269Z,21.71
2022-10-10T14:38:33.675Z,21.69
2022-10-10T14:41:02.033Z,21.85
2022-10-10T14:43:30.089Z,22.01
2022-10-10T14:45:57.802Z,22.09
2022-10-10T14:48:25.404Z,22.05
2022-10-10T14:50:53.061Z,22.11
2022-10-10T14:53:20.836Z,22.00
2022-10-10T14:55:53.931Z,21.91
2022-10-10T14:58:24.105Z,21.79
2022-10-10T15:00:52.834Z,21.82
2022-10-10T15:03:20.741Z,21.80
2022-10-10T15:05:48.724Z,21.82
2022-10-10T15:08:18.474Z,22.02
2022-10-10T15:10:46.055Z,21.87
2022-10-10T15:13:16.707Z,22.16
2022-10-10T15:15:44.378Z,22.35
2022-10-10T15:18:39.596Z,22.34
2022-10-10T15:21:01.059Z,21.81
2022-10-10T15:23:28.878Z,21.67
2022-10-10T15:26:00.157Z,21.54
2022-10-10T15:28:29.144Z,21.19
2022-10-10T15:30:56.745Z,20.83
2022-10-10T15:33:24.421Z,20.67
2022-10-10T15:36:08.969Z,20.31
2022-10-10T15:38:38.263Z,20.18
2022-10-10T15:41:07.549Z,20.02
2022-10-10T15:43:44.458Z,19.94
2022-10-10T15:46:12.091Z,19.80
2022-10-10T15:48:39.734Z,19.41
2022-10-10T15:51:08.752Z,19.28
2022-10-10T15:53:37.109Z,19.05
2022-10-10T15:56:10.220Z,18.95
2022-10-10T15:58:40.661Z,18.79
2022-10-10T16:01:12.745Z,18.87
2022-10-10T16:03:40.469Z,18.83
2022-10-10T16:06:08.833Z,18.71
2022-10-10T16:08:37.350Z,18.72
2022-10-10T16:11:06.789Z,18.69
2022-10-10T16:13:36.050Z,18.51
2022-10-10T16:16:07.113Z,18.39
2022-10-10T16:18:40.026Z,18.38
2022-10-10T16:21:09.539Z,18.27
2022-10-10T16:23:38.045Z,18.23
2022-10-10T16:26:07.559Z,17.96
2022-10-10T16:28:35.851Z,17.89
2022-10-10T16:31:05.892Z,17.75
2022-10-10T16:33:34.054Z,17.79
2022-10-10T16:36:02.117Z,17.59
2022-10-10T16:38:29.717Z,17.60
2022-10-10T16:40:58.692Z,17.47
2022-10-10T16:43:26.406Z,17.31
2022-10-10T16:45:54.031Z,17.14
2022-10-10T16:48:22.943Z,17.01
2022-10-10T16:50:50.678Z,16.86
2022-10-10T16:53:18.295Z,16.78
2022-10-10T16:55:46.268Z,16.80
2022-10-10T16:58:13.918Z,16.74
2022-10-10T17:00:43.171Z,16.72
2022-10-10T17:03:10.805Z,16.61
2022-10-10T17:05:39.839Z,16.44
2022-10-10T17:08:07.379Z,16.28
2022-10-10T17:10:34.957Z,16.15
2022-10-10T17:13:02.746Z,15.69
2022-10-10T17:15:30.434Z,16.08
2022-10-10T17:17:58.006Z,16.09
2022-10-10T17:20:25.619Z,16.05
2022-10-10T17:22:54.571Z,16.03
2022-10-10T17:25:22.127Z,16.15
2022-10-10T17:27:49.725Z,16.24
2022-10-10T17:30:17.564Z,16.18
2022-10-10T17:32:45.143Z,16.21
2022-10-10T17:35:13.186Z,16.21
2022-10-10T17:37:40.785Z,16.39
2022-10-10T17:40:10.661Z,16.46
2022-10-10T17:42:38.305Z,16.38
2022-10-10T17:45:06.630Z,16.48
2022-10-10T17:47:34.663Z,16.66
2022-10-10T17:50:02.308Z,16.58
2022-10-10T17:52:29.904Z,16.72
2022-10-10T17:54:57.467Z,16.72
2022-10-10T17:57:26.455Z,16.68
2022-10-10T18:02:50.139Z,15.78
2022-10-10T18:05:38.356Z,16.04
2022-10-10T18:08:26.766Z,16.00
2022-10-10T18:11:16.703Z,16.02
2022-10-10T18:14:05.945Z,15.93
2022-10-10T18:16:53.876Z,15.69
2022-10-10T18:19:41.798Z,15.60
2022-10-10T18:22:29.728Z,15.58
2022-10-10T18:25:20.626Z,15.47
2022-10-10T18:28:10.839Z,15.43
2022-10-10T18:31:00.698Z,15.45
2022-10-10T18:33:49.236Z,15.38
2022-10-10T18:36:38.616Z,15.35
2022-10-10T18:39:32.192Z,15.31
2022-10-10T18:42:21.064Z,15.35
2022-10-10T18:45:09.366Z,15.30
2022-10-10T18:47:58.637Z,15.30
2022-10-10T18:50:46.566Z,15.30
2022-10-10T18:53:37.124Z,15.19
2022-10-10T18:56:25.181Z,15.11
2022-10-10T18:59:15.127Z,15.07
2022-10-10T19:02:03.036Z,15.07
2022-10-10T19:04:52.250Z,15.08
2022-10-10T19:07:40.145Z,15.11
2022-10-10T19:10:28.084Z,15.15
2022-10-10T19:13:17.016Z,15.16
2022-10-10T19:16:05.682Z,15.09
2022-10-10T19:18:58.043Z,15.01
2022-10-10T19:21:48.928Z,15.01
2022-10-10T19:24:36.859Z,15.02
2022-10-10T19:27:24.774Z,15.12
2022-10-10T19:30:13.994Z,15.13
2022-10-10T19:33:01.918Z,15.10
2022-10-10T19:35:52.226Z,15.20
2022-10-10T19:38:43.116Z,15.19
2022-10-10T19:41:31.211Z,15.25
2022-10-10T19:44:19.135Z,15.11
2022-10-10T19:47:07.037Z,15.21
2022-10-10T19:49:54.944Z,15.19
2022-10-10T19:52:42.927Z,15.16
2022-10-10T19:55:32.421Z,15.11
2022-10-10T19:58:20.328Z,15.09
2022-10-10T20:01:09.444Z,15.17
2022-10-10T20:03:57.972Z,15.14
2022-10-10T20:06:45.917Z,15.19
2022-10-10T20:09:33.830Z,15.23
2022-10-10T20:12:23.269Z,15.32
2022-10-10T20:15:12.341Z,15.31
2022-10-10T20:18:00.271Z,15.26
2022-10-10T20:20:51.099Z,15.12
2022-10-10T20:23:39.063Z,15.18
2022-10-10T20:26:27.345Z,15.17
2022-10-10T20:29:16.583Z,15.21
2022-10-10T20:32:04.599Z,15.19
2022-10-10T20:34:53.577Z,15.12
2022-10-10T20:37:41.482Z,15.06
2022-10-10T20:40:29.419Z,15.09
2022-10-10T20:43:17.575Z,15.11
2022-10-10T20:46:09.200Z,15.04
2022-10-10T20:48:57.904Z,15.11
2022-10-10T20:51:48.664Z,15.10
2022-10-10T20:54:37.124Z,15.15
2022-10-10T20:57:25.138Z,15.15
2022-10-10T21:00:14.269Z,15.07
2022-10-10T21:03:03.506Z,14.99
2022-10-10T21:06:02.439Z,14.84
2022-10-10T21:08:51.074Z,14.90
2022-10-10T21:11:39.975Z,14.76
2022-10-10T21:14:28.183Z,14.67
2022-10-10T21:17:16.110Z,14.68
2022-10-10T21:20:06.254Z,14.63
2022-10-10T21:22:55.602Z,14.65
2022-10-10T21:25:44.651Z,14.66
2022-10-10T21:28:32.630Z,14.64
2022-10-10T21:31:22.691Z,14.70
2022-10-10T21:34:15.601Z,14.73
2022-10-10T21:37:04.949Z,14.74
2022-10-10T21:39:52.865Z,14.78
2022-10-10T21:42:41.064Z,14.81
2022-10-10T21:45:28.984Z,14.83
2022-10-10T21:48:16.918Z,14.75
2022-10-10T21:51:05.723Z,14.86
2022-10-10T21:53:55.872Z,14.79
2022-10-10T21:56:43.844Z,14.90
2022-10-10T21:59:32.484Z,14.90
2022-10-10T22:02:20.385Z,14.95
2022-10-10T22:05:11.138Z,14.96
2022-10-10T22:07:59.017Z,14.96
2022-10-10T22:10:48.247Z,14.93
2022-10-10T22:13:36.611Z,14.92
2022-10-10T22:16:24.982Z,14.92
2022-10-10T22:19:12.981Z,14.95
2022-10-10T22:22:00.864Z,14.96
2022-10-10T22:24:48.763Z,14.99
2022-10-10T22:27:38.273Z,14.75
2022-10-10T22:30:26.247Z,15.02
2022-10-10T22:33:14.278Z,15.02
2022-10-10T22:36:02.783Z,15.05
2022-10-10T22:38:50.951Z,15.09
2022-10-10T22:41:38.890Z,15.10
2022-10-10T22:44:28.206Z,15.06
2022-10-10T22:47:16.133Z,15.03
2022-10-10T22:50:04.311Z,15.04
2022-10-10T22:52:52.229Z,15.03
2022-10-10T22:55:40.175Z,15.02
2022-10-10T22:58:28.307Z,14.97
2022-10-10T23:01:19.553Z,14.95
2022-10-10T23:04:13.138Z,14.97
2022-10-10T23:07:01.059Z,14.95
2022-10-10T23:09:49.495Z,14.95
2022-10-10T23:12:37.784Z,14.96
2022-10-10T23:15:25.677Z,14.96
2022-10-10T23:18:15.164Z,14.95
2022-10-10T23:21:03.126Z,14.93
2022-10-10T23:23:51.200Z,14.90
2022-10-10T23:26:39.113Z,14.90
2022-10-10T23:29:27.074Z,14.93
2022-10-10T23:32:15.041Z,14.93
2022-10-10T23:35:04.547Z,14.90
2022-10-10T23:37:52.461Z,14.90
2022-10-10T23:40:40.401Z,14.91
2022-10-10T23:43:28.571Z,14.88
2022-10-10T23:46:16.521Z,14.88
2022-10-10T23:49:04.431Z,14.89
2022-10-10T23:51:53.718Z,14.89
2022-10-10T23:54:41.644Z,14.90
2022-10-10T23:57:29.723Z,14.90
